sensor_id;sensor_type;location;lat;lon;timestamp;P1;durP1;ratioP1;P2;durP2;ratioP2
19101;SDS011;9683;49.028;12.064;2022-12-05T00:00:10;77.38;;;16.17;;
19101;SDS011;9683;49.028;12.064;2022-12-05T00:02:38;57.08;;;14.80;;
19101;SDS011;9683;49.028;12.064;2022-12-05T00:05:06;119.00;;;20.63;;
19101;SDS011;9683;49.028;12.064;2022-12-05T00:07:35;74.00;;;16.77;;
19101;SDS011;9683;49.028;12.064;2022-12-05T00:10:02;77.07;;;17.65;;
19101;SDS011;9683;49.028;12.064;2022-12-05T00:12:29;70.55;;;17.17;;
19101;SDS011;9683;49.028;12.064;2022-12-05T00:14:55;63.05;;;15.52;;
19101;SDS011;9683;49.028;12.064;2022-12-05T00:17:22;71.40;;;17.27;;
19101;SDS011;9683;49.028;12.064;2022-12-05T00:19:49;68.78;;;14.38;;
19101;SDS011;9683;49.028;12.064;2022-12-05T00:22:17;64.00;;;16.02;;
19101;SDS011;9683;49.028;12.064;2022-12-05T00:24:43;63.10;;;12.00;;
19101;SDS011;9683;49.028;12.064;2022-12-05T00:27:10;61.53;;;11.15;;
19101;SDS011;9683;49.028;12.064;2022-12-05T00:29:37;54.25;;;13.57;;
19101;SDS011;9683;49.028;12.064;2022-12-05T00:32:03;61.47;;;14.02;;
19101;SDS011;9683;49.028;12.064;2022-12-05T00:34:30;55.08;;;13.25;;
19101;SDS011;9683;49.028;12.064;2022-12-05T00:36:57;56.75;;;9.65;;
19101;SDS011;9683;49.028;12.064;2022-12-05T00:39:25;73.05;;;12.10;;
19101;SDS011;9683;49.028;12.064;2022-12-05T00:41:51;66.22;;;11.45;;
19101;SDS011;9683;49.028;12.064;2022-12-05T00:44:18;73.57;;;11.90;;
19101;SDS011;9683;49.028;12.064;2022-12-05T00:46:44;74.65;;;11.82;;
19101;SDS011;9683;49.028;12.064;2022-12-05T00:49:11;45.75;;;9.98;;
19101;SDS011;9683;49.028;12.064;2022-12-05T00:51:38;49.05;;;9.73;;
19101;SDS011;9683;49.028;12.064;2022-12-05T00:54:07;47.50;;;8.40;;
19101;SDS011;9683;49.028;12.064;2022-12-05T00:56:36;79.43;;;12.82;;
19101;SDS011;9683;49.028;12.064;2022-12-05T00:59:04;45.72;;;11.10;;
19101;SDS011;9683;49.028;12.064;2022-12-05T01:01:32;67.18;;;12.57;;
19101;SDS011;9683;49.028;12.064;2022-12-05T01:04:03;80.10;;;12.20;;
19101;SDS011;9683;49.028;12.064;2022-12-05T01:06:31;84.32;;;10.60;;
19101;SDS011;9683;49.028;12.064;2022-12-05T01:08:58;76.78;;;9.85;;
19101;SDS011;9683;49.028;12.064;2022-12-05T01:11:25;55.20;;;10.07;;
19101;SDS011;9683;49.028;12.064;2022-12-05T01:13:54;53.42;;;11.10;;
19101;SDS011;9683;49.028;12.064;2022-12-05T01:16:21;70.60;;;9.68;;
19101;SDS011;9683;49.028;12.064;2022-12-05T01:18:49;41.95;;;7.28;;
19101;SDS011;9683;49.028;12.064;2022-12-05T01:21:16;50.38;;;9.23;;
19101;SDS011;9683;49.028;12.064;2022-12-05T01:23:43;45.75;;;6.38;;
19101;SDS011;9683;49.028;12.064;2022-12-05T01:26:10;55.83;;;8.98;;
19101;SDS011;9683;49.028;12.064;2022-12-05T01:28:38;51.22;;;9.45;;
19101;SDS011;9683;49.028;12.064;2022-12-05T01:31:08;46.15;;;7.70;;
19101;SDS011;9683;49.028;12.064;2022-12-05T01:33:37;79.18;;;13.45;;
19101;SDS011;9683;49.028;12.064;2022-12-05T01:36:04;55.40;;;9.30;;
19101;SDS011;9683;49.028;12.064;2022-12-05T01:38:35;73.30;;;12.43;;
19101;SDS011;9683;49.028;12.064;2022-12-05T01:41:03;50.42;;;8.25;;
19101;SDS011;9683;49.028;12.064;2022-12-05T01:43:31;48.67;;;9.73;;
19101;SDS011;9683;49.028;12.064;2022-12-05T01:45:58;65.63;;;11.00;;
19101;SDS011;9683;49.028;12.064;2022-12-05T01:48:28;72.55;;;10.52;;
19101;SDS011;9683;49.028;12.064;2022-12-05T01:50:57;41.60;;;9.15;;
19101;SDS011;9683;49.028;12.064;2022-12-05T01:53:25;59.90;;;9.98;;
19101;SDS011;9683;49.028;12.064;2022-12-05T01:55:53;55.72;;;11.63;;
19101;SDS011;9683;49.028;12.064;2022-12-05T01:58:21;44.30;;;8.35;;
19101;SDS011;9683;49.028;12.064;2022-12-05T02:00:54;69.85;;;10.10;;
19101;SDS011;9683;49.028;12.064;2022-12-05T02:03:20;50.25;;;8.48;;
19101;SDS011;9683;49.028;12.064;2022-12-05T02:05:50;46.83;;;8.90;;
19101;SDS011;9683;49.028;12.064;2022-12-05T02:08:19;54.63;;;10.20;;
19101;SDS011;9683;49.028;12.064;2022-12-05T02:10:47;77.97;;;11.05;;
19101;SDS011;9683;49.028;12.064;2022-12-05T02:13:29;51.45;;;9.43;;
19101;SDS011;9683;49.028;12.064;2022-12-05T02:16:03;54.78;;;8.85;;
19101;SDS011;9683;49.028;12.064;2022-12-05T02:18:42;43.30;;;7.22;;
19101;SDS011;9683;49.028;12.064;2022-12-05T02:21:37;49.05;;;9.52;;
19101;SDS011;9683;49.028;12.064;2022-12-05T02:24:27;50.10;;;8.65;;
19101;SDS011;9683;49.028;12.064;2022-12-05T02:27:15;55.67;;;9.73;;
19101;SDS011;9683;49.028;12.064;2022-12-05T02:35:39;104.53;;;13.93;;
19101;SDS011;9683;49.028;12.064;2022-12-05T02:38:14;76.82;;;10.48;;
19101;SDS011;9683;49.028;12.064;2022-12-05T02:40:49;52.20;;;9.43;;
19101;SDS011;9683;49.028;12.064;2022-12-05T02:43:21;51.22;;;9.70;;
19101;SDS011;9683;49.028;12.064;2022-12-05T02:45:57;59.00;;;8.07;;
19101;SDS011;9683;49.028;12.064;2022-12-05T02:48:27;46.90;;;8.18;;
19101;SDS011;9683;49.028;12.064;2022-12-05T02:50:55;50.42;;;9.15;;
19101;SDS011;9683;49.028;12.064;2022-12-05T02:53:24;57.22;;;9.15;;
19101;SDS011;9683;49.028;12.064;2022-12-05T02:55:53;66.93;;;8.73;;
19101;SDS011;9683;49.028;12.064;2022-12-05T02:58:20;44.55;;;7.43;;
19101;SDS011;9683;49.028;12.064;2022-12-05T03:00:55;61.90;;;7.05;;
19101;SDS011;9683;49.028;12.064;2022-12-05T03:03:24;56.28;;;7.20;;
19101;SDS011;9683;49.028;12.064;2022-12-05T03:05:54;48.20;;;8.32;;
19101;SDS011;9683;49.028;12.064;2022-12-05T03:08:27;43.20;;;7.57;;
19101;SDS011;9683;49.028;12.064;2022-12-05T03:10:56;90.32;;;9.30;;
19101;SDS011;9683;49.028;12.064;2022-12-05T03:13:26;63.30;;;6.68;;
19101;SDS011;9683;49.028;12.064;2022-12-05T03:16:01;53.05;;;7.95;;
19101;SDS011;9683;49.028;12.064;2022-12-05T03:18:33;47.55;;;8.20;;
19101;SDS011;9683;49.028;12.064;2022-12-05T03:21:04;47.55;;;7.28;;
19101;SDS011;9683;49.028;12.064;2022-12-05T03:23:37;65.22;;;8.60;;
19101;SDS011;9683;49.028;12.064;2022-12-05T03:26:08;58.78;;;7.13;;
19101;SDS011;9683;49.028;12.064;2022-12-05T03:28:45;56.67;;;6.28;;
19101;SDS011;9683;49.028;12.064;2022-12-05T03:31:23;50.40;;;7.68;;
19101;SDS011;9683;49.028;12.064;2022-12-05T03:33:52;65.70;;;8.43;;
19101;SDS011;9683;49.028;12.064;2022-12-05T03:36:26;36.55;;;6.65;;
19101;SDS011;9683;49.028;12.064;2022-12-05T03:38:59;30.13;;;6.38;;
19101;SDS011;9683;49.028;12.064;2022-12-05T03:41:31;32.25;;;4.63;;
19101;SDS011;9683;49.028;12.064;2022-12-05T03:44:03;66.85;;;8.20;;
19101;SDS011;9683;49.028;12.064;2022-12-05T03:46:36;36.10;;;5.30;;
19101;SDS011;9683;49.028;12.064;2022-12-05T03:49:08;38.55;;;6.90;;
19101;SDS011;9683;49.028;12.064;2022-12-05T03:51:44;32.45;;;6.97;;
19101;SDS011;9683;49.028;12.064;2022-12-05T03:54:16;56.33;;;8.45;;
19101;SDS011;9683;49.028;12.064;2022-12-05T03:56:46;33.33;;;7.13;;
19101;SDS011;9683;49.028;12.064;2022-12-05T03:59:18;37.08;;;8.45;;
19101;SDS011;9683;49.028;12.064;2022-12-05T04:01:49;40.83;;;8.88;;
19101;SDS011;9683;49.028;12.064;2022-12-05T04:04:20;41.83;;;7.20;;
19101;SDS011;9683;49.028;12.064;2022-12-05T04:06:50;31.17;;;6.28;;
19101;SDS011;9683;49.028;12.064;2022-12-05T04:09:22;52.50;;;7.55;;
19101;SDS011;9683;49.028;12.064;2022-12-05T04:11:52;44.47;;;6.45;;
19101;SDS011;9683;49.028;12.064;2022-12-05T04:14:23;62.80;;;6.95;;
19101;SDS011;9683;49.028;12.064;2022-12-05T04:16:57;52.08;;;8.23;;
19101;SDS011;9683;49.028;12.064;2022-12-05T04:19:29;48.58;;;7.22;;
19101;SDS011;9683;49.028;12.064;2022-12-05T04:22:14;46.15;;;6.57;;
19101;SDS011;9683;49.028;12.064;2022-12-05T04:24:41;47.35;;;7.25;;
19101;SDS011;9683;49.028;12.064;2022-12-05T04:27:26;26.85;;;6.65;;
19101;SDS011;9683;49.028;12.064;2022-12-05T04:30:00;53.47;;;8.68;;
19101;SDS011;9683;49.028;12.064;2022-12-05T04:32:34;48.03;;;9.32;;
19101;SDS011;9683;49.028;12.064;2022-12-05T04:35:06;81.82;;;10.23;;
19101;SDS011;9683;49.028;12.064;2022-12-05T04:37:37;70.85;;;9.95;;
19101;SDS011;9683;49.028;12.064;2022-12-05T04:40:08;67.25;;;8.75;;
19101;SDS011;9683;49.028;12.064;2022-12-05T04:42:39;63.55;;;8.52;;
19101;SDS011;9683;49.028;12.064;2022-12-05T04:45:09;94.75;;;12.52;;
19101;SDS011;9683;49.028;12.064;2022-12-05T04:47:39;75.57;;;11.25;;
19101;SDS011;9683;49.028;12.064;2022-12-05T04:50:10;51.17;;;10.52;;
19101;SDS011;9683;49.028;12.064;2022-12-05T04:52:39;49.00;;;9.65;;
19101;SDS011;9683;49.028;12.064;2022-12-05T04:55:08;77.70;;;8.55;;
19101;SDS011;9683;49.028;12.064;2022-12-05T04:57:39;46.95;;;7.47;;
19101;SDS011;9683;49.028;12.064;2022-12-05T05:00:09;99.10;;;10.05;;
19101;SDS011;9683;49.028;12.064;2022-12-05T05:02:37;42.08;;;5.90;;
19101;SDS011;9683;49.028;12.064;2022-12-05T05:05:09;39.33;;;6.55;;
19101;SDS011;9683;49.028;12.064;2022-12-05T05:07:42;53.13;;;8.70;;
19101;SDS011;9683;49.028;12.064;2022-12-05T05:10:10;50.33;;;7.10;;
19101;SDS011;9683;49.028;12.064;2022-12-05T05:12:38;81.15;;;9.63;;
19101;SDS011;9683;49.028;12.064;2022-12-05T05:15:05;66.00;;;8.57;;
19101;SDS011;9683;49.028;12.064;2022-12-05T05:17:32;58.58;;;9.60;;
19101;SDS011;9683;49.028;12.064;2022-12-05T05:20:00;54.75;;;11.13;;
19101;SDS011;9683;49.028;12.064;2022-12-05T05:22:47;64.95;;;9.45;;
19101;SDS011;9683;49.028;12.064;2022-12-05T05:25:14;87.43;;;9.98;;
19101;SDS011;9683;49.028;12.064;2022-12-05T05:27:41;47.38;;;8.48;;
19101;SDS011;9683;49.028;12.064;2022-12-05T05:30:08;67.32;;;9.43;;
19101;SDS011;9683;49.028;12.064;2022-12-05T05:32:35;57.47;;;7.80;;
19101;SDS011;9683;49.028;12.064;2022-12-05T05:35:03;51.85;;;8.07;;
19101;SDS011;9683;49.028;12.064;2022-12-05T05:37:30;56.88;;;9.25;;
19101;SDS011;9683;49.028;12.064;2022-12-05T05:39:56;49.47;;;9.50;;
19101;SDS011;9683;49.028;12.064;2022-12-05T05:42:23;61.25;;;10.70;;
19101;SDS011;9683;49.028;12.064;2022-12-05T05:44:50;57.58;;;10.02;;
19101;SDS011;9683;49.028;12.064;2022-12-05T05:47:16;59.95;;;8.80;;
19101;SDS011;9683;49.028;12.064;2022-12-05T05:49:43;52.42;;;9.73;;
19101;SDS011;9683;49.028;12.064;2022-12-05T05:52:11;51.88;;;10.80;;
19101;SDS011;9683;49.028;12.064;2022-12-05T05:54:37;42.75;;;6.40;;
19101;SDS011;9683;49.028;12.064;2022-12-05T05:57:04;43.95;;;5.93;;
19101;SDS011;9683;49.028;12.064;2022-12-05T05:59:30;48.15;;;8.10;;
19101;SDS011;9683;49.028;12.064;2022-12-05T06:01:57;60.63;;;9.70;;
19101;SDS011;9683;49.028;12.064;2022-12-05T06:04:24;48.75;;;8.02;;
19101;SDS011;9683;49.028;12.064;2022-12-05T06:06:50;72.95;;;8.27;;
19101;SDS011;9683;49.028;12.064;2022-12-05T06:09:18;74.53;;;9.63;;
19101;SDS011;9683;49.028;12.064;2022-12-05T06:11:45;46.20;;;9.25;;
19101;SDS011;9683;49.028;12.064;2022-12-05T06:14:11;83.78;;;10.68;;
19101;SDS011;9683;49.028;12.064;2022-12-05T06:16:38;62.60;;;9.23;;
19101;SDS011;9683;49.028;12.064;2022-12-05T06:19:04;49.25;;;7.88;;
19101;SDS011;9683;49.028;12.064;2022-12-05T06:21:31;74.10;;;10.80;;
19101;SDS011;9683;49.028;12.064;2022-12-05T06:23:58;74.07;;;10.13;;
19101;SDS011;9683;49.028;12.064;2022-12-05T06:26:25;44.53;;;8.35;;
19101;SDS011;9683;49.028;12.064;2022-12-05T06:28:52;73.20;;;10.52;;
19101;SDS011;9683;49.028;12.064;2022-12-05T06:31:20;56.97;;;8.50;;
19101;SDS011;9683;49.028;12.064;2022-12-05T06:33:47;57.25;;;10.57;;
19101;SDS011;9683;49.028;12.064;2022-12-05T06:36:15;85.15;;;13.63;;
19101;SDS011;9683;49.028;12.064;2022-12-05T06:38:43;49.00;;;9.48;;
19101;SDS011;9683;49.028;12.064;2022-12-05T06:41:10;78.78;;;10.90;;
19101;SDS011;9683;49.028;12.064;2022-12-05T06:43:41;61.85;;;10.48;;
19101;SDS011;9683;49.028;12.064;2022-12-05T06:46:08;55.47;;;9.20;;
19101;SDS011;9683;49.028;12.064;2022-12-05T06:48:36;41.80;;;9.35;;
19101;SDS011;9683;49.028;12.064;2022-12-05T06:51:03;46.92;;;10.95;;
19101;SDS011;9683;49.028;12.064;2022-12-05T06:53:31;82.03;;;12.05;;
19101;SDS011;9683;49.028;12.064;2022-12-05T06:55:58;61.38;;;8.50;;
19101;SDS011;9683;49.028;12.064;2022-12-05T06:58:26;86.43;;;11.40;;
19101;SDS011;9683;49.028;12.064;2022-12-05T07:00:55;89.43;;;12.48;;
19101;SDS011;9683;49.028;12.064;2022-12-05T07:03:39;83.75;;;10.75;;
19101;SDS011;9683;49.028;12.064;2022-12-05T07:06:08;92.53;;;13.35;;
19101;SDS011;9683;49.028;12.064;2022-12-05T07:08:34;74.65;;;10.43;;
19101;SDS011;9683;49.028;12.064;2022-12-05T07:11:01;64.70;;;9.98;;
19101;SDS011;9683;49.028;12.064;2022-12-05T07:13:28;78.25;;;10.90;;
19101;SDS011;9683;49.028;12.064;2022-12-05T07:15:57;87.78;;;11.65;;
19101;SDS011;9683;49.028;12.064;2022-12-05T07:18:24;82.60;;;11.55;;
19101;SDS011;9683;49.028;12.064;2022-12-05T07:20:54;78.43;;;13.23;;
19101;SDS011;9683;49.028;12.064;2022-12-05T07:23:21;98.10;;;14.45;;
19101;SDS011;9683;49.028;12.064;2022-12-05T07:25:48;101.85;;;14.32;;
19101;SDS011;9683;49.028;12.064;2022-12-05T07:28:14;104.03;;;14.10;;
19101;SDS011;9683;49.028;12.064;2022-12-05T07:30:41;75.00;;;10.93;;
19101;SDS011;9683;49.028;12.064;2022-12-05T07:33:09;114.95;;;14.30;;
19101;SDS011;9683;49.028;12.064;2022-12-05T07:35:35;94.45;;;13.15;;
19101;SDS011;9683;49.028;12.064;2022-12-05T07:38:02;85.65;;;13.15;;
19101;SDS011;9683;49.028;12.064;2022-12-05T07:40:29;94.18;;;11.43;;
19101;SDS011;9683;49.028;12.064;2022-12-05T07:42:55;145.35;;;14.05;;
19101;SDS011;9683;49.028;12.064;2022-12-05T07:45:22;125.43;;;14.75;;
19101;SDS011;9683;49.028;12.064;2022-12-05T07:47:48;137.43;;;16.35;;
19101;SDS011;9683;49.028;12.064;2022-12-05T07:50:16;69.78;;;12.35;;
19101;SDS011;9683;49.028;12.064;2022-12-05T07:52:43;106.00;;;15.10;;
19101;SDS011;9683;49.028;12.064;2022-12-05T07:55:10;150.15;;;13.55;;
19101;SDS011;9683;49.028;12.064;2022-12-05T07:57:36;90.70;;;12.27;;
19101;SDS011;9683;49.028;12.064;2022-12-05T08:00:03;86.28;;;11.43;;
19101;SDS011;9683;49.028;12.064;2022-12-05T08:02:31;99.82;;;11.23;;
19101;SDS011;9683;49.028;12.064;2022-12-05T08:04:57;89.55;;;12.38;;
19101;SDS011;9683;49.028;12.064;2022-12-05T08:07:25;104.88;;;16.42;;
19101;SDS011;9683;49.028;12.064;2022-12-05T08:09:52;101.25;;;13.68;;
19101;SDS011;9683;49.028;12.064;2022-12-05T08:12:18;81.63;;;11.75;;
19101;SDS011;9683;49.028;12.064;2022-12-05T08:14:45;94.03;;;15.98;;
19101;SDS011;9683;49.028;12.064;2022-12-05T08:17:11;95.65;;;14.07;;
19101;SDS011;9683;49.028;12.064;2022-12-05T08:19:38;87.68;;;14.07;;
19101;SDS011;9683;49.028;12.064;2022-12-05T08:22:04;80.55;;;14.35;;
19101;SDS011;9683;49.028;12.064;2022-12-05T08:24:32;94.07;;;12.07;;
19101;SDS011;9683;49.028;12.064;2022-12-05T08:26:59;65.55;;;8.20;;
19101;SDS011;9683;49.028;12.064;2022-12-05T08:29:25;79.10;;;9.65;;
19101;SDS011;9683;49.028;12.064;2022-12-05T08:31:52;114.22;;;11.60;;
19101;SDS011;9683;49.028;12.064;2022-12-05T08:34:19;75.85;;;9.10;;
19101;SDS011;9683;49.028;12.064;2022-12-05T08:36:46;66.65;;;8.45;;
19101;SDS011;9683;49.028;12.064;2022-12-05T08:39:13;83.35;;;11.40;;
19101;SDS011;9683;49.028;12.064;2022-12-05T08:41:42;71.95;;;9.32;;
19101;SDS011;9683;49.028;12.064;2022-12-05T08:44:10;74.75;;;10.55;;
19101;SDS011;9683;49.028;12.064;2022-12-05T08:46:41;92.43;;;14.38;;
19101;SDS011;9683;49.028;12.064;2022-12-05T08:49:09;86.05;;;11.77;;
19101;SDS011;9683;49.028;12.064;2022-12-05T08:51:36;79.47;;;12.27;;
19101;SDS011;9683;49.028;12.064;2022-12-05T08:54:03;82.25;;;11.70;;
19101;SDS011;9683;49.028;12.064;2022-12-05T08:56:30;76.38;;;13.73;;
19101;SDS011;9683;49.028;12.064;2022-12-05T08:58:59;77.45;;;14.52;;
19101;SDS011;9683;49.028;12.064;2022-12-05T09:01:26;103.03;;;16.67;;
19101;SDS011;9683;49.028;12.064;2022-12-05T09:03:54;60.90;;;9.65;;
19101;SDS011;9683;49.028;12.064;2022-12-05T09:06:22;102.68;;;13.88;;
19101;SDS011;9683;49.028;12.064;2022-12-05T09:08:51;108.20;;;14.93;;
19101;SDS011;9683;49.028;12.064;2022-12-05T09:11:19;129.15;;;14.85;;
19101;SDS011;9683;49.028;12.064;2022-12-05T09:13:48;115.20;;;14.35;;
19101;SDS011;9683;49.028;12.064;2022-12-05T09:16:18;81.13;;;11.75;;
19101;SDS011;9683;49.028;12.064;2022-12-05T09:18:47;70.85;;;14.77;;
19101;SDS011;9683;49.028;12.064;2022-12-05T09:21:15;89.65;;;14.60;;
19101;SDS011;9683;49.028;12.064;2022-12-05T09:23:43;74.32;;;11.50;;
19101;SDS011;9683;49.028;12.064;2022-12-05T09:26:11;98.88;;;13.80;;
19101;SDS011;9683;49.028;12.064;2022-12-05T09:28:39;77.38;;;16.02;;
19101;SDS011;9683;49.028;12.064;2022-12-05T09:31:07;52.83;;;11.10;;
19101;SDS011;9683;49.028;12.064;2022-12-05T09:33:37;58.60;;;12.68;;
19101;SDS011;9683;49.028;12.064;2022-12-05T09:36:04;78.10;;;13.75;;
19101;SDS011;9683;49.028;12.064;2022-12-05T09:38:32;61.22;;;14.05;;
19101;SDS011;9683;49.028;12.064;2022-12-05T09:41:04;47.65;;;12.23;;
19101;SDS011;9683;49.028;12.064;2022-12-05T09:43:41;91.63;;;13.48;;
19101;SDS011;9683;49.028;12.064;2022-12-05T09:46:16;83.80;;;14.23;;
19101;SDS011;9683;49.028;12.064;2022-12-05T09:48:53;54.60;;;12.77;;
19101;SDS011;9683;49.028;12.064;2022-12-05T09:51:20;58.63;;;12.73;;
19101;SDS011;9683;49.028;12.064;2022-12-05T09:53:47;60.15;;;14.82;;
19101;SDS011;9683;49.028;12.064;2022-12-05T09:56:17;56.75;;;14.52;;
19101;SDS011;9683;49.028;12.064;2022-12-05T09:58:48;54.40;;;14.40;;
19101;SDS011;9683;49.028;12.064;2022-12-05T10:01:30;100.13;;;17.15;;
19101;SDS011;9683;49.028;12.064;2022-12-05T10:04:17;46.92;;;11.40;;
19101;SDS011;9683;49.028;12.064;2022-12-05T10:06:54;56.50;;;14.98;;
19101;SDS011;9683;49.028;12.064;2022-12-05T10:09:38;91.75;;;16.40;;
19101;SDS011;9683;49.028;12.064;2022-12-05T10:12:14;81.38;;;14.38;;
19101;SDS011;9683;49.028;12.064;2022-12-05T10:14:54;88.25;;;18.02;;
19101;SDS011;9683;49.028;12.064;2022-12-05T10:17:29;74.88;;;17.13;;
19101;SDS011;9683;49.028;12.064;2022-12-05T10:20:02;109.25;;;15.70;;
19101;SDS011;9683;49.028;12.064;2022-12-05T10:22:35;50.65;;;13.38;;
19101;SDS011;9683;49.028;12.064;2022-12-05T10:25:09;78.75;;;15.65;;
19101;SDS011;9683;49.028;12.064;2022-12-05T10:27:39;80.93;;;15.68;;
19101;SDS011;9683;49.028;12.064;2022-12-05T10:30:12;85.75;;;15.35;;
19101;SDS011;9683;49.028;12.064;2022-12-05T10:32:42;90.47;;;16.20;;
19101;SDS011;9683;49.028;12.064;2022-12-05T10:35:18;120.85;;;18.33;;
19101;SDS011;9683;49.028;12.064;2022-12-05T10:37:46;60.63;;;14.65;;
19101;SDS011;9683;49.028;12.064;2022-12-05T10:40:15;111.72;;;19.75;;
19101;SDS011;9683;49.028;12.064;2022-12-05T10:42:41;85.72;;;14.55;;
19101;SDS011;9683;49.028;12.064;2022-12-05T10:45:12;67.85;;;13.32;;
19101;SDS011;9683;49.028;12.064;2022-12-05T10:47:41;100.65;;;15.82;;
19101;SDS011;9683;49.028;12.064;2022-12-05T10:50:14;75.72;;;12.05;;
19101;SDS011;9683;49.028;12.064;2022-12-05T10:52:47;64.85;;;12.30;;
19101;SDS011;9683;49.028;12.064;2022-12-05T10:55:15;118.10;;;15.73;;
19101;SDS011;9683;49.028;12.064;2022-12-05T10:57:44;88.60;;;15.23;;
19101;SDS011;9683;49.028;12.064;2022-12-05T11:00:15;78.68;;;14.05;;
19101;SDS011;9683;49.028;12.064;2022-12-05T11:02:46;53.10;;;13.27;;
19101;SDS011;9683;49.028;12.064;2022-12-05T11:05:14;95.88;;;13.82;;
19101;SDS011;9683;49.028;12.064;2022-12-05T11:07:46;94.57;;;13.30;;
19101;SDS011;9683;49.028;12.064;2022-12-05T11:10:20;77.43;;;14.57;;
19101;SDS011;9683;49.028;12.064;2022-12-05T11:12:48;50.92;;;11.77;;
19101;SDS011;9683;49.028;12.064;2022-12-05T11:15:19;131.65;;;15.93;;
19101;SDS011;9683;49.028;12.064;2022-12-05T11:17:49;56.30;;;11.02;;
19101;SDS011;9683;49.028;12.064;2022-12-05T11:20:33;48.78;;;11.50;;
19101;SDS011;9683;49.028;12.064;2022-12-05T11:23:14;80.80;;;14.20;;
19101;SDS011;9683;49.028;12.064;2022-12-05T11:25:52;78.57;;;11.10;;
19101;SDS011;9683;49.028;12.064;2022-12-05T11:28:26;57.20;;;10.13;;
19101;SDS011;9683;49.028;12.064;2022-12-05T11:30:59;52.47;;;9.48;;
19101;SDS011;9683;49.028;12.064;2022-12-05T11:33:27;69.90;;;10.07;;
19101;SDS011;9683;49.028;12.064;2022-12-05T11:35:55;68.55;;;9.40;;
19101;SDS011;9683;49.028;12.064;2022-12-05T11:38:38;39.33;;;8.65;;
19101;SDS011;9683;49.028;12.064;2022-12-05T11:44:19;67.05;;;9.70;;
19101;SDS011;9683;49.028;12.064;2022-12-05T11:46:58;46.10;;;8.18;;
19101;SDS011;9683;49.028;12.064;2022-12-05T11:49:39;62.15;;;7.68;;
19101;SDS011;9683;49.028;12.064;2022-12-05T11:52:28;36.85;;;7.25;;
19101;SDS011;9683;49.028;12.064;2022-12-05T11:55:09;58.97;;;8.25;;
19101;SDS011;9683;49.028;12.064;2022-12-05T11:57:46;70.78;;;9.20;;
19101;SDS011;9683;49.028;12.064;2022-12-05T12:00:25;57.95;;;7.38;;
19101;SDS011;9683;49.028;12.064;2022-12-05T12:03:13;58.80;;;8.68;;
19101;SDS011;9683;49.028;12.064;2022-12-05T12:06:16;84.32;;;10.82;;
19101;SDS011;9683;49.028;12.064;2022-12-05T12:08:53;53.10;;;7.97;;
19101;SDS011;9683;49.028;12.064;2022-12-05T12:11:33;69.05;;;9.23;;
19101;SDS011;9683;49.028;12.064;2022-12-05T12:14:08;43.90;;;6.65;;
19101;SDS011;9683;49.028;12.064;2022-12-05T12:16:45;63.63;;;6.97;;
19101;SDS011;9683;49.028;12.064;2022-12-05T12:19:31;67.53;;;7.53;;
19101;SDS011;9683;49.028;12.064;2022-12-05T12:22:13;73.90;;;9.02;;
19101;SDS011;9683;49.028;12.064;2022-12-05T12:24:56;65.65;;;6.38;;
19101;SDS011;9683;49.028;12.064;2022-12-05T12:27:38;71.05;;;7.60;;
19101;SDS011;9683;49.028;12.064;2022-12-05T12:30:16;42.97;;;7.90;;
19101;SDS011;9683;49.028;12.064;2022-12-05T12:32:49;50.08;;;5.40;;
19101;SDS011;9683;49.028;12.064;2022-12-05T12:35:27;74.05;;;5.93;;
19101;SDS011;9683;49.028;12.064;2022-12-05T12:38:10;70.25;;;6.60;;
19101;SDS011;9683;49.028;12.064;2022-12-05T12:40:50;96.70;;;8.20;;
19101;SDS011;9683;49.028;12.064;2022-12-05T12:43:31;32.53;;;4.40;;
19101;SDS011;9683;49.028;12.064;2022-12-05T12:46:15;41.13;;;4.25;;
19101;SDS011;9683;49.028;12.064;2022-12-05T12:48:56;48.53;;;5.45;;
19101;SDS011;9683;49.028;12.064;2022-12-05T12:51:31;68.85;;;6.32;;
19101;SDS011;9683;49.028;12.064;2022-12-05T12:54:01;44.67;;;4.90;;
19101;SDS011;9683;49.028;12.064;2022-12-05T12:56:42;87.65;;;6.15;;
19101;SDS011;9683;49.028;12.064;2022-12-05T12:59:23;63.15;;;5.63;;
19101;SDS011;9683;49.028;12.064;2022-12-05T13:02:03;53.55;;;5.22;;
19101;SDS011;9683;49.028;12.064;2022-12-05T13:04:40;54.58;;;5.63;;
19101;SDS011;9683;49.028;12.064;2022-12-05T13:07:13;49.22;;;5.45;;
19101;SDS011;9683;49.028;12.064;2022-12-05T13:09:46;69.63;;;6.47;;
19101;SDS011;9683;49.028;12.064;2022-12-05T13:12:16;47.17;;;4.60;;
19101;SDS011;9683;49.028;12.064;2022-12-05T13:14:51;52.00;;;4.78;;
19101;SDS011;9683;49.028;12.064;2022-12-05T13:17:20;75.47;;;7.40;;
19101;SDS011;9683;49.028;12.064;2022-12-05T13:19:48;159.98;;;10.65;;
19101;SDS011;9683;49.028;12.064;2022-12-05T13:22:16;84.00;;;6.88;;
19101;SDS011;9683;49.028;12.064;2022-12-05T13:24:44;100.43;;;8.40;;
19101;SDS011;9683;49.028;12.064;2022-12-05T13:27:13;93.05;;;7.35;;
19101;SDS011;9683;49.028;12.064;2022-12-05T13:29:42;85.13;;;6.18;;
19101;SDS011;9683;49.028;12.064;2022-12-05T13:32:26;91.47;;;7.15;;
19101;SDS011;9683;49.028;12.064;2022-12-05T13:34:55;104.72;;;6.75;;
19101;SDS011;9683;49.028;12.064;2022-12-05T13:37:24;66.68;;;6.88;;
19101;SDS011;9683;49.028;12.064;2022-12-05T13:43:21;51.30;;;5.50;;
19101;SDS011;9683;49.028;12.064;2022-12-05T13:45:56;55.00;;;5.32;;
19101;SDS011;9683;49.028;12.064;2022-12-05T13:48:27;68.32;;;5.75;;
19101;SDS011;9683;49.028;12.064;2022-12-05T13:50:58;69.78;;;5.70;;
19101;SDS011;9683;49.028;12.064;2022-12-05T13:53:30;113.93;;;7.78;;
19101;SDS011;9683;49.028;12.064;2022-12-05T13:56:02;52.05;;;5.65;;
19101;SDS011;9683;49.028;12.064;2022-12-05T13:58:41;74.63;;;5.40;;
19101;SDS011;9683;49.028;12.064;2022-12-05T14:04:38;140.30;;;9.75;;
19101;SDS011;9683;49.028;12.064;2022-12-05T14:07:08;85.00;;;6.20;;
19101;SDS011;9683;49.028;12.064;2022-12-05T14:15:24;112.32;;;8.52;;
19101;SDS011;9683;49.028;12.064;2022-12-05T14:17:58;80.68;;;6.38;;
19101;SDS011;9683;49.028;12.064;2022-12-05T14:20:30;70.25;;;7.07;;
19101;SDS011;9683;49.028;12.064;2022-12-05T14:23:14;56.17;;;4.82;;
19101;SDS011;9683;49.028;12.064;2022-12-05T14:25:57;106.93;;;7.82;;
19101;SDS011;9683;49.028;12.064;2022-12-05T14:28:35;65.97;;;5.47;;
19101;SDS011;9683;49.028;12.064;2022-12-05T14:31:22;103.40;;;7.75;;
19101;SDS011;9683;49.028;12.064;2022-12-05T14:34:04;60.05;;;5.38;;
19101;SDS011;9683;49.028;12.064;2022-12-05T14:36:50;121.47;;;9.18;;
19101;SDS011;9683;49.028;12.064;2022-12-05T14:39:19;50.60;;;4.88;;
19101;SDS011;9683;49.028;12.064;2022-12-05T14:41:47;136.57;;;9.95;;
19101;SDS011;9683;49.028;12.064;2022-12-05T14:44:21;43.90;;;5.40;;
19101;SDS011;9683;49.028;12.064;2022-12-05T14:46:52;107.65;;;10.15;;
19101;SDS011;9683;49.028;12.064;2022-12-05T14:52:20;91.93;;;7.53;;
19101;SDS011;9683;49.028;12.064;2022-12-05T14:54:48;99.63;;;8.93;;
19101;SDS011;9683;49.028;12.064;2022-12-05T14:57:17;114.63;;;9.93;;
19101;SDS011;9683;49.028;12.064;2022-12-05T14:59:47;74.78;;;6.10;;
19101;SDS011;9683;49.028;12.064;2022-12-05T15:02:19;103.13;;;8.10;;
19101;SDS011;9683;49.028;12.064;2022-12-05T15:04:54;58.22;;;6.53;;
19101;SDS011;9683;49.028;12.064;2022-12-05T15:07:27;89.50;;;8.25;;
19101;SDS011;9683;49.028;12.064;2022-12-05T15:09:58;47.38;;;4.60;;
19101;SDS011;9683;49.028;12.064;2022-12-05T15:12:27;73.47;;;6.82;;